DAUH/HME METAR and TAF weather

Enter ICAO airport designator
Station Type Date Time Source
DAUH METAR 2022/11/30 10:00 UTC NOAA

DAUH 301000Z 34004KT 300V360 CAVOK 15/02 Q1017


Station Type Date Time Source
DAUH Decoded METAR 2022/11/30 10:00 UTC NOAA

Hassi-Messaoud, Algeria (DAUH) 31-40N 006-09E 142M
Nov 30, 2022 - 05:00 AM EST / 2022.11.30 1000 UTC
Wind: from the NNW (340 degrees) at 5 MPH (4 KT) (direction variable):0
Visibility: greater than 7 mile(s):0
Temperature: 59 F (15 C)
Dew Point: 35 F (2 C)
Relative Humidity: 41%
Pressure (altimeter): 30.03 in. Hg (1017 hPa)
ob: DAUH 301000Z 34004KT 300V360 CAVOK 15/02 Q1017
cycle: 10

Station Type Date Time Source
DAUH TAF 2022/11/30 06:33 UTC NOAA

TAF DAUH 300500Z 3006/0106 VRB02KT 8000 NSC

Example: see airport list